sensor_id;sensor_type;location;lat;lon;timestamp;P1;durP1;ratioP1;P2;durP2;ratioP2
7783;SDS011;19359;51.402;6.778;2022-09-09T00:02:19;2.10;;;0.40;;
7783;SDS011;19359;51.402;6.778;2022-09-09T00:04:51;1.25;;;0.30;;
7783;SDS011;19359;51.402;6.778;2022-09-09T00:07:28;0.40;;;0.30;;
7783;SDS011;19359;51.402;6.778;2022-09-09T00:10:06;0.35;;;0.30;;
7783;SDS011;19359;51.402;6.778;2022-09-09T00:12:43;3.38;;;0.40;;
7783;SDS011;19359;51.402;6.778;2022-09-09T00:15:21;2.10;;;0.68;;
7783;SDS011;19359;51.402;6.778;2022-09-09T00:17:52;1.50;;;0.55;;
7783;SDS011;19359;51.402;6.778;2022-09-09T00:20:25;2.60;;;0.45;;
7783;SDS011;19359;51.402;6.778;2022-09-09T00:22:59;0.30;;;0.30;;
7783;SDS011;19359;51.402;6.778;2022-09-09T00:25:32;1.45;;;0.40;;
7783;SDS011;19359;51.402;6.778;2022-09-09T00:28:07;3.30;;;0.50;;
7783;SDS011;19359;51.402;6.778;2022-09-09T00:30:40;3.30;;;0.55;;
7783;SDS011;19359;51.402;6.778;2022-09-09T00:33:09;1.58;;;0.75;;
7783;SDS011;19359;51.402;6.778;2022-09-09T00:35:40;2.65;;;0.40;;
7783;SDS011;19359;51.402;6.778;2022-09-09T00:38:11;0.65;;;0.55;;
7783;SDS011;19359;51.402;6.778;2022-09-09T00:40:41;2.15;;;0.50;;
7783;SDS011;19359;51.402;6.778;2022-09-09T00:43:26;1.45;;;0.40;;
7783;SDS011;19359;51.402;6.778;2022-09-09T00:46:12;4.40;;;0.52;;
7783;SDS011;19359;51.402;6.778;2022-09-09T00:49:00;1.27;;;0.40;;
7783;SDS011;19359;51.402;6.778;2022-09-09T00:51:38;0.57;;;0.40;;
7783;SDS011;19359;51.402;6.778;2022-09-09T00:54:21;0.55;;;0.35;;
7783;SDS011;19359;51.402;6.778;2022-09-09T00:56:57;1.60;;;0.70;;
7783;SDS011;19359;51.402;6.778;2022-09-09T00:59:35;1.55;;;0.50;;
7783;SDS011;19359;51.402;6.778;2022-09-09T01:02:13;1.83;;;0.47;;
7783;SDS011;19359;51.402;6.778;2022-09-09T01:04:48;0.40;;;0.35;;
7783;SDS011;19359;51.402;6.778;2022-09-09T01:07:16;3.85;;;0.63;;
7783;SDS011;19359;51.402;6.778;2022-09-09T01:09:51;0.90;;;0.40;;
7783;SDS011;19359;51.402;6.778;2022-09-09T01:12:25;0.77;;;0.77;;
7783;SDS011;19359;51.402;6.778;2022-09-09T01:15:08;3.70;;;0.50;;
7783;SDS011;19359;51.402;6.778;2022-09-09T01:17:41;2.05;;;0.50;;
7783;SDS011;19359;51.402;6.778;2022-09-09T01:20:15;0.80;;;0.50;;
7783;SDS011;19359;51.402;6.778;2022-09-09T01:22:49;0.40;;;0.40;;
7783;SDS011;19359;51.402;6.778;2022-09-09T01:25:29;3.13;;;0.65;;
7783;SDS011;19359;51.402;6.778;2022-09-09T01:28:32;0.82;;;0.50;;
7783;SDS011;19359;51.402;6.778;2022-09-09T01:31:02;0.40;;;0.40;;
7783;SDS011;19359;51.402;6.778;2022-09-09T01:33:30;0.47;;;0.47;;
7783;SDS011;19359;51.402;6.778;2022-09-09T01:35:58;0.60;;;0.60;;
7783;SDS011;19359;51.402;6.778;2022-09-09T01:38:29;1.25;;;0.32;;
7783;SDS011;19359;51.402;6.778;2022-09-09T01:40:57;0.63;;;0.45;;
7783;SDS011;19359;51.402;6.778;2022-09-09T01:43:26;1.55;;;0.50;;
7783;SDS011;19359;51.402;6.778;2022-09-09T01:45:54;2.45;;;0.55;;
7783;SDS011;19359;51.402;6.778;2022-09-09T01:48:24;0.47;;;0.47;;
7783;SDS011;19359;51.402;6.778;2022-09-09T01:50:52;1.55;;;0.32;;
7783;SDS011;19359;51.402;6.778;2022-09-09T01:53:19;2.05;;;0.60;;
7783;SDS011;19359;51.402;6.778;2022-09-09T01:55:49;3.63;;;0.52;;
7783;SDS011;19359;51.402;6.778;2022-09-09T01:58:28;1.08;;;0.50;;
7783;SDS011;19359;51.402;6.778;2022-09-09T02:01:02;0.65;;;0.40;;
7783;SDS011;19359;51.402;6.778;2022-09-09T02:03:37;3.08;;;0.65;;
7783;SDS011;19359;51.402;6.778;2022-09-09T02:06:06;4.38;;;0.73;;
7783;SDS011;19359;51.402;6.778;2022-09-09T02:08:42;1.10;;;0.88;;
7783;SDS011;19359;51.402;6.778;2022-09-09T02:11:13;2.70;;;0.60;;
7783;SDS011;19359;51.402;6.778;2022-09-09T02:13:43;1.90;;;0.80;;
7783;SDS011;19359;51.402;6.778;2022-09-09T02:16:12;3.53;;;0.50;;
7783;SDS011;19359;51.402;6.778;2022-09-09T02:18:45;0.82;;;0.60;;
7783;SDS011;19359;51.402;6.778;2022-09-09T02:21:17;1.30;;;0.40;;
7783;SDS011;19359;51.402;6.778;2022-09-09T02:23:46;2.63;;;1.33;;
7783;SDS011;19359;51.402;6.778;2022-09-09T02:26:17;3.20;;;0.50;;
7783;SDS011;19359;51.402;6.778;2022-09-09T02:28:50;0.70;;;0.63;;
7783;SDS011;19359;51.402;6.778;2022-09-09T02:31:20;1.65;;;0.70;;
7783;SDS011;19359;51.402;6.778;2022-09-09T02:33:50;1.20;;;0.70;;
7783;SDS011;19359;51.402;6.778;2022-09-09T02:36:20;0.57;;;0.50;;
7783;SDS011;19359;51.402;6.778;2022-09-09T02:38:50;0.40;;;0.40;;
7783;SDS011;19359;51.402;6.778;2022-09-09T02:41:19;2.58;;;0.73;;
7783;SDS011;19359;51.402;6.778;2022-09-09T02:43:51;1.80;;;0.57;;
7783;SDS011;19359;51.402;6.778;2022-09-09T02:46:23;2.38;;;0.80;;
7783;SDS011;19359;51.402;6.778;2022-09-09T02:49:03;1.52;;;0.80;;
7783;SDS011;19359;51.402;6.778;2022-09-09T02:51:35;2.17;;;0.88;;
7783;SDS011;19359;51.402;6.778;2022-09-09T02:54:14;1.35;;;0.90;;
7783;SDS011;19359;51.402;6.778;2022-09-09T02:56:47;3.00;;;1.08;;
7783;SDS011;19359;51.402;6.778;2022-09-09T02:59:20;6.70;;;0.82;;
7783;SDS011;19359;51.402;6.778;2022-09-09T03:01:49;3.30;;;1.10;;
7783;SDS011;19359;51.402;6.778;2022-09-09T03:04:15;4.30;;;0.65;;
7783;SDS011;19359;51.402;6.778;2022-09-09T03:06:42;2.15;;;0.68;;
7783;SDS011;19359;51.402;6.778;2022-09-09T03:09:09;4.35;;;1.00;;
7783;SDS011;19359;51.402;6.778;2022-09-09T03:11:36;6.80;;;0.93;;
7783;SDS011;19359;51.402;6.778;2022-09-09T03:14:04;2.65;;;1.02;;
7783;SDS011;19359;51.402;6.778;2022-09-09T03:16:32;2.35;;;0.98;;
7783;SDS011;19359;51.402;6.778;2022-09-09T03:18:59;2.20;;;0.60;;
7783;SDS011;19359;51.402;6.778;2022-09-09T03:21:26;3.15;;;1.15;;
7783;SDS011;19359;51.402;6.778;2022-09-09T03:23:53;3.58;;;1.30;;
7783;SDS011;19359;51.402;6.778;2022-09-09T03:26:20;0.82;;;0.57;;
7783;SDS011;19359;51.402;6.778;2022-09-09T03:28:48;4.72;;;1.20;;
7783;SDS011;19359;51.402;6.778;2022-09-09T03:31:16;1.38;;;1.20;;
7783;SDS011;19359;51.402;6.778;2022-09-09T03:33:45;4.40;;;0.95;;
7783;SDS011;19359;51.402;6.778;2022-09-09T03:36:12;1.52;;;0.60;;
7783;SDS011;19359;51.402;6.778;2022-09-09T03:38:39;1.63;;;1.05;;
7783;SDS011;19359;51.402;6.778;2022-09-09T03:41:06;1.10;;;0.80;;
7783;SDS011;19359;51.402;6.778;2022-09-09T03:43:34;2.70;;;1.02;;
7783;SDS011;19359;51.402;6.778;2022-09-09T03:46:01;4.50;;;1.30;;
7783;SDS011;19359;51.402;6.778;2022-09-09T03:48:28;4.47;;;1.10;;
7783;SDS011;19359;51.402;6.778;2022-09-09T03:50:57;3.40;;;1.00;;
7783;SDS011;19359;51.402;6.778;2022-09-09T03:53:26;7.82;;;1.00;;
7783;SDS011;19359;51.402;6.778;2022-09-09T03:55:54;6.95;;;1.20;;
7783;SDS011;19359;51.402;6.778;2022-09-09T03:58:26;2.05;;;0.90;;
7783;SDS011;19359;51.402;6.778;2022-09-09T04:00:54;1.55;;;0.90;;
7783;SDS011;19359;51.402;6.778;2022-09-09T04:03:22;2.90;;;1.20;;
7783;SDS011;19359;51.402;6.778;2022-09-09T04:05:49;3.92;;;1.00;;
7783;SDS011;19359;51.402;6.778;2022-09-09T04:08:18;0.88;;;0.82;;
7783;SDS011;19359;51.402;6.778;2022-09-09T04:10:45;6.40;;;0.95;;
7783;SDS011;19359;51.402;6.778;2022-09-09T04:13:12;3.50;;;1.10;;
7783;SDS011;19359;51.402;6.778;2022-09-09T04:15:41;2.40;;;1.05;;
7783;SDS011;19359;51.402;6.778;2022-09-09T04:18:08;7.97;;;1.20;;
7783;SDS011;19359;51.402;6.778;2022-09-09T04:20:36;2.63;;;0.90;;
7783;SDS011;19359;51.402;6.778;2022-09-09T04:23:03;4.60;;;1.08;;
7783;SDS011;19359;51.402;6.778;2022-09-09T04:25:32;1.95;;;0.80;;
7783;SDS011;19359;51.402;6.778;2022-09-09T04:27:59;3.95;;;1.23;;
7783;SDS011;19359;51.402;6.778;2022-09-09T04:30:25;8.93;;;0.82;;
7783;SDS011;19359;51.402;6.778;2022-09-09T04:32:53;1.40;;;0.90;;
7783;SDS011;19359;51.402;6.778;2022-09-09T04:35:20;5.53;;;1.02;;
7783;SDS011;19359;51.402;6.778;2022-09-09T04:37:46;0.75;;;0.75;;
7783;SDS011;19359;51.402;6.778;2022-09-09T04:40:14;6.43;;;1.52;;
7783;SDS011;19359;51.402;6.778;2022-09-09T04:42:42;5.35;;;1.10;;
7783;SDS011;19359;51.402;6.778;2022-09-09T04:45:09;5.45;;;1.27;;
7783;SDS011;19359;51.402;6.778;2022-09-09T04:47:38;0.75;;;0.57;;
7783;SDS011;19359;51.402;6.778;2022-09-09T04:50:06;2.20;;;1.08;;
7783;SDS011;19359;51.402;6.778;2022-09-09T04:52:33;3.97;;;0.93;;
7783;SDS011;19359;51.402;6.778;2022-09-09T04:55:01;1.75;;;0.98;;
7783;SDS011;19359;51.402;6.778;2022-09-09T04:57:28;5.32;;;0.88;;
7783;SDS011;19359;51.402;6.778;2022-09-09T04:59:58;3.67;;;0.90;;
7783;SDS011;19359;51.402;6.778;2022-09-09T05:02:27;6.10;;;0.85;;
7783;SDS011;19359;51.402;6.778;2022-09-09T05:04:55;2.60;;;1.00;;
7783;SDS011;19359;51.402;6.778;2022-09-09T05:07:22;3.70;;;1.02;;
7783;SDS011;19359;51.402;6.778;2022-09-09T05:09:48;4.85;;;2.05;;
7783;SDS011;19359;51.402;6.778;2022-09-09T05:12:15;6.43;;;1.42;;
7783;SDS011;19359;51.402;6.778;2022-09-09T05:14:42;1.75;;;1.38;;
7783;SDS011;19359;51.402;6.778;2022-09-09T05:17:11;9.02;;;1.15;;
7783;SDS011;19359;51.402;6.778;2022-09-09T05:19:38;2.40;;;0.85;;
7783;SDS011;19359;51.402;6.778;2022-09-09T05:22:05;5.90;;;1.52;;
7783;SDS011;19359;51.402;6.778;2022-09-09T05:24:32;8.18;;;1.10;;
7783;SDS011;19359;51.402;6.778;2022-09-09T05:26:59;5.30;;;0.85;;
7783;SDS011;19359;51.402;6.778;2022-09-09T05:29:27;3.38;;;1.02;;
7783;SDS011;19359;51.402;6.778;2022-09-09T05:31:54;1.85;;;1.02;;
7783;SDS011;19359;51.402;6.778;2022-09-09T05:34:22;2.78;;;1.25;;
7783;SDS011;19359;51.402;6.778;2022-09-09T05:36:49;0.90;;;0.90;;
7783;SDS011;19359;51.402;6.778;2022-09-09T05:39:16;3.70;;;1.08;;
7783;SDS011;19359;51.402;6.778;2022-09-09T05:41:43;8.60;;;1.58;;
7783;SDS011;19359;51.402;6.778;2022-09-09T05:44:10;1.50;;;1.00;;
7783;SDS011;19359;51.402;6.778;2022-09-09T05:46:36;1.20;;;1.20;;
7783;SDS011;19359;51.402;6.778;2022-09-09T05:49:03;2.80;;;1.17;;
7783;SDS011;19359;51.402;6.778;2022-09-09T05:51:32;5.68;;;1.33;;
7783;SDS011;19359;51.402;6.778;2022-09-09T05:53:59;4.72;;;1.17;;
7783;SDS011;19359;51.402;6.778;2022-09-09T05:56:26;6.90;;;0.68;;
7783;SDS011;19359;51.402;6.778;2022-09-09T05:58:55;6.13;;;1.35;;
7783;SDS011;19359;51.402;6.778;2022-09-09T06:01:22;3.50;;;1.20;;
7783;SDS011;19359;51.402;6.778;2022-09-09T06:03:51;4.13;;;1.15;;
7783;SDS011;19359;51.402;6.778;2022-09-09T06:06:18;7.45;;;1.25;;
7783;SDS011;19359;51.402;6.778;2022-09-09T06:08:49;7.10;;;1.70;;
7783;SDS011;19359;51.402;6.778;2022-09-09T06:11:18;4.35;;;1.33;;
7783;SDS011;19359;51.402;6.778;2022-09-09T06:13:46;3.38;;;1.20;;
7783;SDS011;19359;51.402;6.778;2022-09-09T06:16:17;3.40;;;0.88;;
7783;SDS011;19359;51.402;6.778;2022-09-09T06:18:45;4.57;;;1.20;;
7783;SDS011;19359;51.402;6.778;2022-09-09T06:21:15;8.48;;;1.55;;
7783;SDS011;19359;51.402;6.778;2022-09-09T06:23:42;5.32;;;1.20;;
7783;SDS011;19359;51.402;6.778;2022-09-09T06:26:11;10.55;;;1.27;;
7783;SDS011;19359;51.402;6.778;2022-09-09T06:28:39;6.28;;;1.40;;
7783;SDS011;19359;51.402;6.778;2022-09-09T06:31:08;5.50;;;0.93;;
7783;SDS011;19359;51.402;6.778;2022-09-09T06:33:37;7.45;;;1.45;;
7783;SDS011;19359;51.402;6.778;2022-09-09T06:36:06;6.65;;;1.23;;
7783;SDS011;19359;51.402;6.778;2022-09-09T06:38:36;4.68;;;1.10;;
7783;SDS011;19359;51.402;6.778;2022-09-09T06:41:03;5.53;;;1.23;;
7783;SDS011;19359;51.402;6.778;2022-09-09T06:43:32;1.75;;;0.90;;
7783;SDS011;19359;51.402;6.778;2022-09-09T06:46:00;5.20;;;1.23;;
7783;SDS011;19359;51.402;6.778;2022-09-09T06:48:28;6.68;;;0.93;;
7783;SDS011;19359;51.402;6.778;2022-09-09T06:51:01;5.88;;;1.08;;
7783;SDS011;19359;51.402;6.778;2022-09-09T06:53:30;3.20;;;1.08;;
7783;SDS011;19359;51.402;6.778;2022-09-09T06:55:59;4.97;;;1.10;;
7783;SDS011;19359;51.402;6.778;2022-09-09T06:58:26;3.67;;;0.93;;
7783;SDS011;19359;51.402;6.778;2022-09-09T07:01:02;5.57;;;0.88;;
7783;SDS011;19359;51.402;6.778;2022-09-09T07:03:29;2.65;;;0.77;;
7783;SDS011;19359;51.402;6.778;2022-09-09T07:05:56;6.90;;;0.80;;
7783;SDS011;19359;51.402;6.778;2022-09-09T07:08:25;2.78;;;0.80;;
7783;SDS011;19359;51.402;6.778;2022-09-09T07:11:01;8.32;;;1.13;;
7783;SDS011;19359;51.402;6.778;2022-09-09T07:13:29;6.20;;;0.70;;
7783;SDS011;19359;51.402;6.778;2022-09-09T07:16:03;3.03;;;0.95;;
7783;SDS011;19359;51.402;6.778;2022-09-09T07:18:31;4.88;;;0.77;;
7783;SDS011;19359;51.402;6.778;2022-09-09T07:20:59;2.80;;;0.82;;
7783;SDS011;19359;51.402;6.778;2022-09-09T07:23:27;5.88;;;1.00;;
7783;SDS011;19359;51.402;6.778;2022-09-09T07:25:55;1.38;;;0.90;;
7783;SDS011;19359;51.402;6.778;2022-09-09T07:28:23;6.68;;;1.02;;
7783;SDS011;19359;51.402;6.778;2022-09-09T07:30:54;3.35;;;1.15;;
7783;SDS011;19359;51.402;6.778;2022-09-09T07:33:23;2.97;;;0.88;;
7783;SDS011;19359;51.402;6.778;2022-09-09T07:35:50;3.90;;;0.65;;
7783;SDS011;19359;51.402;6.778;2022-09-09T07:38:18;3.78;;;0.70;;
7783;SDS011;19359;51.402;6.778;2022-09-09T07:40:45;2.70;;;0.95;;
7783;SDS011;19359;51.402;6.778;2022-09-09T07:43:12;5.05;;;0.95;;
7783;SDS011;19359;51.402;6.778;2022-09-09T07:45:39;3.20;;;0.60;;
7783;SDS011;19359;51.402;6.778;2022-09-09T07:48:07;0.90;;;0.43;;
7783;SDS011;19359;51.402;6.778;2022-09-09T07:50:36;4.25;;;0.80;;
7783;SDS011;19359;51.402;6.778;2022-09-09T07:53:03;1.80;;;0.63;;
7783;SDS011;19359;51.402;6.778;2022-09-09T07:55:31;10.82;;;0.90;;
7783;SDS011;19359;51.402;6.778;2022-09-09T07:57:58;7.07;;;0.98;;
7783;SDS011;19359;51.402;6.778;2022-09-09T08:00:25;4.13;;;0.85;;
7783;SDS011;19359;51.402;6.778;2022-09-09T08:02:52;5.47;;;1.10;;
7783;SDS011;19359;51.402;6.778;2022-09-09T08:05:19;6.03;;;0.50;;
7783;SDS011;19359;51.402;6.778;2022-09-09T08:07:48;4.57;;;1.00;;
7783;SDS011;19359;51.402;6.778;2022-09-09T08:10:15;6.57;;;0.80;;
7783;SDS011;19359;51.402;6.778;2022-09-09T08:12:43;7.53;;;0.60;;
7783;SDS011;19359;51.402;6.778;2022-09-09T08:15:10;3.50;;;0.47;;
7783;SDS011;19359;51.402;6.778;2022-09-09T08:17:37;4.50;;;0.80;;
7783;SDS011;19359;51.402;6.778;2022-09-09T08:20:04;4.60;;;0.95;;
7783;SDS011;19359;51.402;6.778;2022-09-09T08:22:31;3.42;;;0.70;;
7783;SDS011;19359;51.402;6.778;2022-09-09T08:25:00;2.83;;;0.52;;
7783;SDS011;19359;51.402;6.778;2022-09-09T08:27:27;3.85;;;0.40;;
7783;SDS011;19359;51.402;6.778;2022-09-09T08:29:54;2.58;;;0.45;;
7783;SDS011;19359;51.402;6.778;2022-09-09T08:32:21;5.22;;;0.65;;
7783;SDS011;19359;51.402;6.778;2022-09-09T08:34:48;2.35;;;0.80;;
7783;SDS011;19359;51.402;6.778;2022-09-09T08:37:16;11.38;;;0.90;;
7783;SDS011;19359;51.402;6.778;2022-09-09T08:39:44;5.57;;;0.63;;
7783;SDS011;19359;51.402;6.778;2022-09-09T08:42:19;2.78;;;1.15;;
7783;SDS011;19359;51.402;6.778;2022-09-09T08:45:00;2.55;;;0.60;;
7783;SDS011;19359;51.402;6.778;2022-09-09T08:47:39;2.22;;;0.70;;
7783;SDS011;19359;51.402;6.778;2022-09-09T08:50:13;3.38;;;0.60;;
7783;SDS011;19359;51.402;6.778;2022-09-09T08:52:49;2.38;;;0.60;;
7783;SDS011;19359;51.402;6.778;2022-09-09T08:55:22;2.03;;;0.50;;
7783;SDS011;19359;51.402;6.778;2022-09-09T08:57:55;2.10;;;0.40;;
7783;SDS011;19359;51.402;6.778;2022-09-09T09:00:27;2.55;;;0.57;;
7783;SDS011;19359;51.402;6.778;2022-09-09T09:03:01;3.75;;;0.57;;
7783;SDS011;19359;51.402;6.778;2022-09-09T09:05:35;3.78;;;0.88;;
7783;SDS011;19359;51.402;6.778;2022-09-09T09:08:11;0.55;;;0.55;;
7783;SDS011;19359;51.402;6.778;2022-09-09T09:10:49;2.38;;;0.52;;
7783;SDS011;19359;51.402;6.778;2022-09-09T09:13:19;3.30;;;0.50;;
7783;SDS011;19359;51.402;6.778;2022-09-09T09:15:49;2.00;;;0.70;;
7783;SDS011;19359;51.402;6.778;2022-09-09T09:18:21;1.95;;;0.43;;
7783;SDS011;19359;51.402;6.778;2022-09-09T09:20:54;2.38;;;0.65;;
7783;SDS011;19359;51.402;6.778;2022-09-09T09:23:26;1.45;;;0.40;;
7783;SDS011;19359;51.402;6.778;2022-09-09T09:26:00;2.80;;;0.50;;
7783;SDS011;19359;51.402;6.778;2022-09-09T09:28:29;3.20;;;0.70;;
7783;SDS011;19359;51.402;6.778;2022-09-09T09:30:59;2.45;;;0.60;;
7783;SDS011;19359;51.402;6.778;2022-09-09T09:33:31;5.55;;;1.15;;
7783;SDS011;19359;51.402;6.778;2022-09-09T09:36:03;7.78;;;0.85;;
7783;SDS011;19359;51.402;6.778;2022-09-09T09:38:33;3.63;;;0.40;;
7783;SDS011;19359;51.402;6.778;2022-09-09T09:41:02;2.00;;;0.50;;
7783;SDS011;19359;51.402;6.778;2022-09-09T09:43:32;1.13;;;0.45;;
7783;SDS011;19359;51.402;6.778;2022-09-09T09:46:00;3.30;;;0.50;;
7783;SDS011;19359;51.402;6.778;2022-09-09T09:48:30;0.40;;;0.40;;
7783;SDS011;19359;51.402;6.778;2022-09-09T09:50:58;6.43;;;0.80;;
7783;SDS011;19359;51.402;6.778;2022-09-09T09:53:28;2.15;;;0.50;;
7783;SDS011;19359;51.402;6.778;2022-09-09T09:55:58;2.17;;;0.40;;
7783;SDS011;19359;51.402;6.778;2022-09-09T09:58:26;8.73;;;0.63;;
7783;SDS011;19359;51.402;6.778;2022-09-09T10:01:00;1.45;;;0.40;;
7783;SDS011;19359;51.402;6.778;2022-09-09T10:03:28;4.95;;;0.75;;
7783;SDS011;19359;51.402;6.778;2022-09-09T10:05:56;0.20;;;0.20;;
7783;SDS011;19359;51.402;6.778;2022-09-09T10:08:23;8.43;;;0.85;;
7783;SDS011;19359;51.402;6.778;2022-09-09T10:11:04;2.40;;;0.20;;
7783;SDS011;19359;51.402;6.778;2022-09-09T10:13:51;3.33;;;0.52;;
7783;SDS011;19359;51.402;6.778;2022-09-09T10:16:32;1.75;;;0.30;;
7783;SDS011;19359;51.402;6.778;2022-09-09T10:19:10;2.83;;;0.68;;
7783;SDS011;19359;51.402;6.778;2022-09-09T10:24:33;3.78;;;0.60;;
7783;SDS011;19359;51.402;6.778;2022-09-09T10:27:16;1.52;;;0.40;;
7783;SDS011;19359;51.402;6.778;2022-09-09T10:29:52;4.50;;;0.38;;
7783;SDS011;19359;51.402;6.778;2022-09-09T10:32:35;0.88;;;0.32;;
7783;SDS011;19359;51.402;6.778;2022-09-09T10:35:09;1.65;;;0.20;;
7783;SDS011;19359;51.402;6.778;2022-09-09T10:37:46;3.42;;;0.40;;
7783;SDS011;19359;51.402;6.778;2022-09-09T10:40:27;2.92;;;0.55;;
7783;SDS011;19359;51.402;6.778;2022-09-09T10:42:59;2.67;;;0.50;;
7783;SDS011;19359;51.402;6.778;2022-09-09T10:45:35;2.45;;;0.52;;
7783;SDS011;19359;51.402;6.778;2022-09-09T10:48:14;1.05;;;0.30;;
7783;SDS011;19359;51.402;6.778;2022-09-09T10:50:53;2.15;;;0.40;;
7783;SDS011;19359;51.402;6.778;2022-09-09T10:53:30;2.05;;;0.30;;
7783;SDS011;19359;51.402;6.778;2022-09-09T10:56:08;4.50;;;0.30;;
7783;SDS011;19359;51.402;6.778;2022-09-09T10:58:40;5.32;;;0.40;;
7783;SDS011;19359;51.402;6.778;2022-09-09T11:01:12;1.35;;;0.77;;
7783;SDS011;19359;51.402;6.778;2022-09-09T11:03:46;1.02;;;0.40;;
7783;SDS011;19359;51.402;6.778;2022-09-09T11:06:21;1.15;;;0.63;;
7783;SDS011;19359;51.402;6.778;2022-09-09T11:08:53;5.15;;;0.30;;
7783;SDS011;19359;51.402;6.778;2022-09-09T11:11:25;4.47;;;0.85;;
7783;SDS011;19359;51.402;6.778;2022-09-09T11:13:55;1.40;;;0.50;;
7783;SDS011;19359;51.402;6.778;2022-09-09T11:16:28;1.92;;;0.50;;
7783;SDS011;19359;51.402;6.778;2022-09-09T11:19:00;1.92;;;0.40;;
7783;SDS011;19359;51.402;6.778;2022-09-09T11:21:31;0.30;;;0.30;;
7783;SDS011;19359;51.402;6.778;2022-09-09T11:24:02;3.05;;;0.45;;
7783;SDS011;19359;51.402;6.778;2022-09-09T11:26:36;2.42;;;0.50;;
7783;SDS011;19359;51.402;6.778;2022-09-09T11:29:13;1.48;;;0.30;;
7783;SDS011;19359;51.402;6.778;2022-09-09T11:31:54;2.25;;;0.40;;
7783;SDS011;19359;51.402;6.778;2022-09-09T11:34:38;3.42;;;0.28;;
7783;SDS011;19359;51.402;6.778;2022-09-09T11:40:09;0.95;;;0.40;;
7783;SDS011;19359;51.402;6.778;2022-09-09T11:42:42;2.13;;;0.20;;
7783;SDS011;19359;51.402;6.778;2022-09-09T11:45:19;1.33;;;0.38;;
7783;SDS011;19359;51.402;6.778;2022-09-09T11:47:51;1.50;;;0.30;;
7783;SDS011;19359;51.402;6.778;2022-09-09T11:50:29;2.33;;;0.40;;
7783;SDS011;19359;51.402;6.778;2022-09-09T11:53:05;0.25;;;0.20;;
7783;SDS011;19359;51.402;6.778;2022-09-09T11:55:46;1.63;;;0.30;;
7783;SDS011;19359;51.402;6.778;2022-09-09T11:58:16;3.50;;;0.40;;
7783;SDS011;19359;51.402;6.778;2022-09-09T12:00:44;1.15;;;0.30;;
7783;SDS011;19359;51.402;6.778;2022-09-09T12:06:12;1.30;;;0.40;;
7783;SDS011;19359;51.402;6.778;2022-09-09T12:08:43;0.63;;;0.38;;
7783;SDS011;19359;51.402;6.778;2022-09-09T12:11:12;0.77;;;0.43;;
7783;SDS011;19359;51.402;6.778;2022-09-09T12:13:52;2.72;;;0.43;;
7783;SDS011;19359;51.402;6.778;2022-09-09T12:16:27;1.45;;;0.20;;
7783;SDS011;19359;51.402;6.778;2022-09-09T12:19:13;0.52;;;0.10;;
7783;SDS011;19359;51.402;6.778;2022-09-09T12:21:44;1.27;;;0.43;;
7783;SDS011;19359;51.402;6.778;2022-09-09T12:24:17;0.22;;;0.17;;
7783;SDS011;19359;51.402;6.778;2022-09-09T12:26:51;2.80;;;0.20;;
7783;SDS011;19359;51.402;6.778;2022-09-09T12:29:25;2.95;;;0.30;;
7783;SDS011;19359;51.402;6.778;2022-09-09T12:31:59;0.68;;;0.30;;
7783;SDS011;19359;51.402;6.778;2022-09-09T12:34:33;2.65;;;0.55;;
7783;SDS011;19359;51.402;6.778;2022-09-09T12:37:08;5.30;;;0.50;;
7783;SDS011;19359;51.402;6.778;2022-09-09T12:39:43;2.88;;;0.47;;
7783;SDS011;19359;51.402;6.778;2022-09-09T12:42:17;3.55;;;0.50;;
7783;SDS011;19359;51.402;6.778;2022-09-09T12:44:54;2.75;;;0.40;;
7783;SDS011;19359;51.402;6.778;2022-09-09T12:47:23;0.95;;;0.77;;
7783;SDS011;19359;51.402;6.778;2022-09-09T12:49:55;3.25;;;0.80;;
7783;SDS011;19359;51.402;6.778;2022-09-09T12:52:25;8.23;;;3.15;;
7783;SDS011;19359;51.402;6.778;2022-09-09T12:54:56;5.55;;;1.65;;
7783;SDS011;19359;51.402;6.778;2022-09-09T12:57:24;3.38;;;1.92;;
7783;SDS011;19359;51.402;6.778;2022-09-09T13:00:03;6.22;;;3.08;;
7783;SDS011;19359;51.402;6.778;2022-09-09T13:02:33;7.70;;;3.55;;
7783;SDS011;19359;51.402;6.778;2022-09-09T13:05:05;5.97;;;2.03;;
7783;SDS011;19359;51.402;6.778;2022-09-09T13:07:40;4.43;;;2.00;;
7783;SDS011;19359;51.402;6.778;2022-09-09T13:10:10;6.88;;;4.38;;
7783;SDS011;19359;51.402;6.778;2022-09-09T13:12:37;8.65;;;4.07;;
7783;SDS011;19359;51.402;6.778;2022-09-09T13:15:05;7.50;;;2.83;;
7783;SDS011;19359;51.402;6.778;2022-09-09T13:17:42;6.20;;;1.63;;
7783;SDS011;19359;51.402;6.778;2022-09-09T13:20:15;4.20;;;1.50;;
7783;SDS011;19359;51.402;6.778;2022-09-09T13:22:46;2.08;;;0.80;;
7783;SDS011;19359;51.402;6.778;2022-09-09T13:25:19;2.17;;;0.88;;
7783;SDS011;19359;51.402;6.778;2022-09-09T13:28:00;2.35;;;0.80;;
7783;SDS011;19359;51.402;6.778;2022-09-09T13:30:29;1.88;;;0.77;;
7783;SDS011;19359;51.402;6.778;2022-09-09T13:35:49;1.30;;;0.70;;
7783;SDS011;19359;51.402;6.778;2022-09-09T13:38:19;0.93;;;0.52;;
7783;SDS011;19359;51.402;6.778;2022-09-09T13:40:54;5.53;;;0.70;;
7783;SDS011;19359;51.402;6.778;2022-09-09T13:43:24;1.80;;;0.60;;
7783;SDS011;19359;51.402;6.778;2022-09-09T13:45:53;0.93;;;0.45;;
7783;SDS011;19359;51.402;6.778;2022-09-09T13:48:21;0.85;;;0.40;;
7783;SDS011;19359;51.402;6.778;2022-09-09T13:50:53;2.65;;;0.50;;
7783;SDS011;19359;51.402;6.778;2022-09-09T13:53:22;0.47;;;0.35;;
7783;SDS011;19359;51.402;6.778;2022-09-09T13:55:49;0.50;;;0.47;;
7783;SDS011;19359;51.402;6.778;2022-09-09T13:58:17;3.03;;;0.30;;
7783;SDS011;19359;51.402;6.778;2022-09-09T14:00:44;0.90;;;0.63;;
7783;SDS011;19359;51.402;6.778;2022-09-09T14:03:12;0.98;;;0.40;;
7783;SDS011;19359;51.402;6.778;2022-09-09T14:05:39;2.80;;;0.40;;
7783;SDS011;19359;51.402;6.778;2022-09-09T14:08:07;0.85;;;0.40;;
7783;SDS011;19359;51.402;6.778;2022-09-09T14:10:40;0.77;;;0.50;;
7783;SDS011;19359;51.402;6.778;2022-09-09T14:13:07;0.93;;;0.35;;
7783;SDS011;19359;51.402;6.778;2022-09-09T14:15:34;1.05;;;0.50;;
7783;SDS011;19359;51.402;6.778;2022-09-09T14:18:01;1.85;;;0.30;;
7783;SDS011;19359;51.402;6.778;2022-09-09T14:20:28;1.27;;;0.43;;
7783;SDS011;19359;51.402;6.778;2022-09-09T14:22:55;1.55;;;0.50;;
7783;SDS011;19359;51.402;6.778;2022-09-09T14:25:22;2.15;;;0.40;;
7783;SDS011;19359;51.402;6.778;2022-09-09T14:27:51;1.63;;;0.45;;
7783;SDS011;19359;51.402;6.778;2022-09-09T14:30:18;3.92;;;1.48;;
7783;SDS011;19359;51.402;6.778;2022-09-09T14:32:44;2.42;;;0.50;;
7783;SDS011;19359;51.402;6.778;2022-09-09T14:35:11;3.22;;;0.50;;
7783;SDS011;19359;51.402;6.778;2022-09-09T14:37:38;1.85;;;0.50;;
7783;SDS011;19359;51.402;6.778;2022-09-09T14:40:05;2.60;;;0.30;;
7783;SDS011;19359;51.402;6.778;2022-09-09T14:42:33;2.38;;;0.30;;
7783;SDS011;19359;51.402;6.778;2022-09-09T14:45:01;0.32;;;0.20;;
7783;SDS011;19359;51.402;6.778;2022-09-09T14:47:28;2.17;;;0.10;;
7783;SDS011;19359;51.402;6.778;2022-09-09T14:49:55;0.35;;;0.20;;
7783;SDS011;19359;51.402;6.778;2022-09-09T14:52:22;2.17;;;0.60;;
7783;SDS011;19359;51.402;6.778;2022-09-09T14:54:48;0.50;;;0.50;;
7783;SDS011;19359;51.402;6.778;2022-09-09T14:57:15;2.33;;;0.80;;
7783;SDS011;19359;51.402;6.778;2022-09-09T14:59:42;12.88;;;2.17;;
7783;SDS011;19359;51.402;6.778;2022-09-09T15:02:10;1.70;;;0.93;;
7783;SDS011;19359;51.402;6.778;2022-09-09T15:04:38;2.10;;;0.75;;
7783;SDS011;19359;51.402;6.778;2022-09-09T15:07:05;0.88;;;0.65;;
7783;SDS011;19359;51.402;6.778;2022-09-09T15:09:32;1.90;;;0.40;;
7783;SDS011;19359;51.402;6.778;2022-09-09T15:11:59;2.75;;;0.38;;
7783;SDS011;19359;51.402;6.778;2022-09-09T15:14:26;0.90;;;0.30;;
7783;SDS011;19359;51.402;6.778;2022-09-09T15:16:53;0.98;;;0.30;;
7783;SDS011;19359;51.402;6.778;2022-09-09T15:19:21;1.95;;;0.30;;
7783;SDS011;19359;51.402;6.778;2022-09-09T15:21:48;0.43;;;0.40;;
7783;SDS011;19359;51.402;6.778;2022-09-09T15:24:15;1.50;;;0.30;;
7783;SDS011;19359;51.402;6.778;2022-09-09T15:26:42;1.75;;;0.52;;
7783;SDS011;19359;51.402;6.778;2022-09-09T15:29:08;0.57;;;0.20;;
7783;SDS011;19359;51.402;6.778;2022-09-09T15:31:35;0.20;;;0.20;;
7783;SDS011;19359;51.402;6.778;2022-09-09T15:34:03;0.38;;;0.10;;